KTVC/TVC METAR and TAF weather

Enter ICAO airport designator
Station Type Date Time Source
KTVC METAR 2020/06/01 15:53 UTC NOAA

KTVC 011553Z 23013G20KT 10SM FEW060 BKN250 22/06 A3014 RMK SLP208 T02220061


Station Type Date Time Source
KTVC Decoded METAR 2020/06/01 15:53 UTC NOAA

CHERRY CAPITAL AIRPORT, MI, United States (KTVC) 44-44N 085-34W 190M
Jun 01, 2020 - 11:53 AM EDT / 2020.06.01 1553 UTC
Wind: from the SW (230 degrees) at 15 MPH (13 KT) gusting to 23 MPH (20 KT):0
Visibility: 10 mile(s):0
Sky conditions: mostly cloudy
Temperature: 72.0 F (22.2 C)
Dew Point: 43.0 F (6.1 C)
Relative Humidity: 35%
Pressure (altimeter): 30.14 in. Hg (1020 hPa)
ob: KTVC 011553Z 23013G20KT 10SM FEW060 BKN250 22/06 A3014 RMK SLP208 T02220061
cycle: 16

Station Type Date Time Source
KTVC TAF 2020/06/01 12:22 UTC NOAA

TAF KTVC 011120Z 0112/0212 22007KT P6SM SCT250
FM012000 21012G21KT P6SM VCSH OVC040
FM012300 18009KT 5SM -SHRA OVC024 WS020/21040KT
FM020200 19012KT 4SM -SHRA OVC014 WS020/21040KT
FM020500 19011KT 6SM -SHRA OVC014 WS020/23040KT
FM020800 22009KT P6SM OVC013 WS020/25035KT
FM021000 23007KT P6SM BKN009

Example: see airport list